Latest Weather Observations for White Cliffs AWS

IDN60801

Issued at 9:32 am EST Tuesday 26 May 2015 (issued every 30 minutes, with the page automatically refreshed every 10 minutes)

About weather observations | Map of weather stations | Latest weather observations for NSW | Other Formats
Station Details ID: 046129 Name: WHITE CLIFFS AWS Lat: -30.85 Lon: 143.07 Height: 158.0 m
Data from the previous 72 hours. | See also: Recent months at White Cliffs AWS
Date/Time
EST
Temp
°C
App
Temp
°C
Dew
Point
Rel
Hum
%
Delta-T
°C
Wind Press
QNH
hPa
Press
MSL
hPa
Rain
since 9 am
mm
Dir
 
Spd
km/h
Gust
km/h
Spd
kts
Gust
kts
26/09:30am 17.3 15.8 9.2 59 4.2 E 7 9 4 5 1027.0 1026.9 0.0
26/09:00am 15.9 14.4 9.1 64 3.5 ESE 7 9 4 5 1026.8 1026.7 0.0
26/08:30am 15.4 13.9 9.1 66 3.3 E 7 9 4 5 1026.8 1026.7 0.0
26/08:00am 14.9 12.9 8.6 66 3.2 E 9 11 5 6 1026.4 1026.2 0.0
26/07:30am 14.9 13.2 8.2 64 3.4 ENE 7 9 4 5 1026.4 1026.2 0.0
26/07:00am 15.1 14.3 8.3 64 3.4 SW 2 7 1 4 1026.4 1026.2 0.0
26/06:30am 15.9 13.8 8.2 60 3.9 N 9 15 5 8 1026.1 1025.9 0.0
26/06:00am 16.5 13.6 8.0 57 4.3 NNE 13 19 7 10 1025.6 1025.4 0.0
26/05:30am 16.7 13.0 8.1 57 4.4 NE 17 24 9 13 1025.1 1024.9 0.0
26/05:00am 16.0 13.2 8.7 62 3.7 NNE 13 19 7 10 1025.3 1025.1 0.0
26/04:30am 13.7 11.7 8.7 72 2.5 ENE 9 11 5 6 1025.3 1025.1 0.0
26/04:00am 13.5 10.8 9.0 74 2.3 E 13 13 7 7 1025.4 1025.2 0.0
26/03:30am 12.9 10.5 8.8 76 2.1 E 11 13 6 7 1025.6 1025.4 0.0
26/03:00am 13.1 10.7 8.6 74 2.3 E 11 15 6 8 1025.8 1025.6 0.0
26/02:30am 13.5 10.8 8.8 73 2.4 ESE 13 15 7 8 1025.9 1025.7 0.0
26/02:00am 13.8 10.7 9.0 73 2.4 ESE 15 19 8 10 1026.0 1025.8 0.0
26/01:30am 13.3 10.7 9.2 76 2.1 ESE 13 15 7 8 1026.3 1026.1 0.0
26/01:00am 13.8 11.2 9.3 74 2.3 ESE 13 17 7 9 1026.4 1026.2 0.0
26/12:30am 14.4 11.4 9.2 71 2.7 ESE 15 19 8 10 1026.6 1026.5 0.0
26/12:00am 14.8 11.8 9.2 69 2.9 ESE 15 17 8 9 1026.9 1026.8 0.0
 
Date/Time
EST
Temp
°C
App
Temp
°C
Dew
Point
Rel
Hum
%
Delta-T
°C
Wind Press
QNH
hPa
Press
MSL
hPa
Rain
since 9 am
mm
Dir
 
Spd
km/h
Gust
km/h
Spd
kts
Gust
kts
25/11:30pm 15.0 12.0 9.1 68 3.0 ESE 15 17 8 9 1027.0 1026.9 0.0
25/11:00pm 15.3 12.7 9.2 67 3.1 ESE 13 15 7 8 1027.3 1027.2 0.0
25/10:30pm 15.0 12.3 9.1 68 3.0 ESE 13 17 7 9 1027.3 1027.2 0.0
25/10:00pm 14.8 12.4 8.7 67 3.1 ESE 11 13 6 7 1027.7 1027.6 0.0
25/09:30pm 15.5 13.3 9.2 66 3.3 ESE 11 13 6 7 1027.6 1027.5 0.0
25/09:00pm 15.7 13.8 8.9 64 3.5 E 9 11 5 6 1027.7 1027.6 0.0
25/08:30pm 16.6 14.6 8.6 59 4.1 ESE 9 11 5 6 1027.7 1027.6 0.0
25/08:00pm 17.9 15.0 8.2 53 5.0 SE 13 15 7 8 1027.2 1027.1 0.0
25/07:30pm 18.0 16.4 8.6 54 4.9 SE 7 9 4 5 1027.4 1027.3 0.0
25/07:00pm 17.9 15.5 8.5 54 4.8 ESE 11 13 6 7 1026.5 1026.4 0.0
25/06:30pm 17.8 15.4 8.6 55 4.8 ESE 11 13 6 7 1026.0 1025.8 0.0
25/06:00pm 18.2 16.2 8.5 53 5.0 ESE 9 11 5 6 1026.2 1026.0 0.0
25/05:30pm 19.0 16.9 8.4 50 5.5 ENE 9 11 5 6 1026.0 1025.8 0.0
25/05:00pm 19.9 17.8 8.3 47 6.0 ENE 9 11 5 6 1025.7 1025.5 0.0
25/04:30pm 20.4 17.8 7.7 44 6.6 E 11 15 6 8 1025.9 1025.7 0.0
25/04:00pm 20.8 17.7 7.4 42 6.9 ENE 13 17 7 9 1025.9 1025.7 0.0
25/03:30pm 21.2 18.6 7.8 42 7.0 ENE 11 15 6 8 1025.9 1025.7 0.0
25/03:00pm 21.3 18.2 7.2 40 7.3 ENE 13 20 7 11 1026.2 1026.0 0.0
25/02:30pm 21.2 18.2 7.8 42 7.0 E 13 19 7 10 1026.0 1025.8 0.0
25/02:00pm 21.1 17.6 7.3 41 7.1 ENE 15 22 8 12 1026.5 1026.4 0.0
25/01:30pm 20.9 17.2 7.9 43 6.8 ENE 17 22 9 12 1026.4 1026.2 0.0
25/01:00pm 20.7 17.3 7.7 43 6.7 ENE 15 24 8 13 1026.8 1026.7 0.0
25/12:30pm 19.9 16.8 7.3 44 6.5 E 13 19 7 10 1027.7 1027.6 0.0
25/12:00pm 19.9 16.8 7.3 44 6.4 ENE 13 17 7 9 1028.2 1028.1 0.0
25/11:30am 19.1 16.2 8.1 49 5.7 ENE 13 17 7 9 1029.1 1029.0 0.0
25/11:00am 18.8 15.8 7.9 49 5.6 ENE 13 17 7 9 1029.3 1029.2 0.0
25/10:30am 17.4 14.6 8.5 56 4.6 E 13 17 7 9 1029.9 1029.7 0.0
25/10:00am 16.6 13.8 8.6 59 4.1 ENE 13 17 7 9 1030.0 1029.8 0.0
25/09:30am 14.1 10.9 8.5 69 2.8 ESE 15 19 8 10 1029.6 1029.5 0.0
25/09:00am 13.6 10.0 8.2 70 2.7 E 17 20 9 11 1029.1 1029.0 0.0
25/08:30am 12.6 8.9 7.9 73 2.3 E 17 20 9 11 1029.2 1029.1 0.0
25/08:00am 11.7 8.3 7.6 76 2.0 ESE 15 19 8 10 1028.9 1028.8 0.0
25/07:30am 9.9 6.8 7.2 83 1.3 E 13 17 7 9 1028.7 1028.6 0.0
25/07:00am 9.8 6.7 7.1 83 1.3 E 13 15 7 8 1028.5 1028.4 0.0
25/06:30am 10.1 6.9 7.0 81 1.5 E 13 15 7 8 1028.4 1028.3 0.0
25/06:00am 10.2 6.7 7.3 82 1.4 E 15 17 8 9 1028.0 1027.9 0.0
25/05:30am 10.2 7.1 7.4 83 1.3 E 13 15 7 8 1028.0 1027.9 0.0
25/05:00am 10.1 7.0 7.2 82 1.4 E 13 15 7 8 1028.0 1027.9 0.0
25/04:30am 11.0 8.0 7.5 79 1.7 E 13 17 7 9 1027.7 1027.6 0.0
25/04:00am 11.8 8.5 8.1 78 1.8 ESE 15 17 8 9 1027.5 1027.4 0.0
25/03:30am 10.6 7.6 7.8 83 1.4 E 13 15 7 8 1027.9 1027.8 0.0
25/03:00am 10.8 7.9 8.2 84 1.3 E 13 15 7 8 1028.0 1027.9 0.0
25/02:30am 11.2 8.0 8.4 83 1.4 ESE 15 17 8 9 1027.8 1027.7 0.0
25/02:00am 10.0 6.5 7.4 84 1.2 E 15 15 8 8 1027.6 1027.5 0.0
25/01:30am 11.3 8.8 8.3 82 1.5 ESE 11 13 6 7 1028.0 1027.9 0.0
25/01:00am 10.7 7.3 7.8 82 1.4 E 15 17 8 9 1027.8 1027.7 0.0
25/12:30am 11.3 8.4 8.2 81 1.5 ESE 13 13 7 7 1028.3 1028.2 0.0
25/12:00am 10.5 7.9 7.7 83 1.3 E 11 13 6 7 1028.2 1028.1 0.0
 
Date/Time
EST
Temp
°C
App
Temp
°C
Dew
Point
Rel
Hum
%
Delta-T
°C
Wind Press
QNH
hPa
Press
MSL
hPa
Rain
since 9 am
mm
Dir
 
Spd
km/h
Gust
km/h
Spd
kts
Gust
kts
24/11:30pm 11.6 9.6 8.6 82 1.5 ESE 9 11 5 6 1028.8 1028.7 0.0
24/11:00pm 11.6 9.2 8.5 81 1.5 E 11 13 6 7 1028.8 1028.7 0.0
24/10:30pm 11.9 9.4 8.4 79 1.7 ESE 11 13 6 7 1029.0 1028.9 0.0
24/10:00pm 12.6 9.7 8.3 75 2.1 ESE 13 15 7 8 1028.9 1028.8 0.0
24/09:30pm 14.1 11.2 8.3 68 2.9 ESE 13 19 7 10 1028.9 1028.8 0.0
24/09:00pm 14.8 11.2 8.3 65 3.3 SE 17 20 9 11 1028.8 1028.7 0.0
24/08:30pm 15.0 11.4 8.5 65 3.3 SE 17 20 9 11 1028.8 1028.7 0.0
24/08:00pm 14.3 11.8 8.0 66 3.1 SSE 11 13 6 7 1028.8 1028.7 0.0
24/07:30pm 15.3 12.8 8.1 62 3.6 SE 11 13 6 7 1028.6 1028.5 0.0
24/07:00pm 15.7 12.8 8.0 60 3.9 SE 13 15 7 8 1028.3 1028.2 0.0
24/06:30pm 15.3 12.8 8.1 62 3.6 SE 11 13 6 7 1028.3 1028.2 0.0
24/06:00pm 15.5 12.9 7.8 60 3.9 ESE 11 13 6 7 1027.6 1027.5 0.0
24/05:30pm 16.6 13.9 7.5 55 4.6 E 11 15 6 8 1027.6 1027.5 0.0
24/05:00pm 17.8 14.8 7.5 51 5.2 E 13 17 7 9 1027.5 1027.4 0.0
24/04:30pm 18.1 15.0 7.2 49 5.5 E 13 19 7 10 1027.3 1027.2 0.0
24/04:00pm 18.4 15.4 7.5 49 5.5 E 13 19 7 10 1027.3 1027.2 0.0
24/03:30pm 18.5 15.4 7.3 48 5.7 ESE 13 19 7 10 1027.4 1027.3 0.0
24/03:00pm 18.3 15.5 7.1 48 5.6 ENE 11 17 6 9 1027.7 1027.6 0.0
24/02:30pm 18.1 15.4 7.5 50 5.4 ENE 11 20 6 11 1027.7 1027.6 0.0
24/02:00pm 18.3 15.3 7.7 50 5.4 ENE 13 19 7 10 1027.8 1027.7 0.0
24/01:30pm 18.4 14.7 8.1 51 5.3 ENE 17 24 9 13 1027.8 1027.7 0.0
24/01:00pm 17.4 13.7 8.0 54 4.8 ENE 17 24 9 13 1028.0 1027.9 0.0
24/12:30pm 17.0 14.2 8.4 57 4.4 ENE 13 19 7 10 1028.4 1028.3 0.0
24/12:00pm 15.3 12.0 8.1 62 3.6 ENE 15 20 8 11 1029.0 1028.9 0.0
24/11:30am 14.5 10.1 7.5 63 3.5 E 20 26 11 14 1029.1 1029.0 0.0
24/11:00am 13.7 9.6 7.9 68 2.9 E 19 22 10 12 1029.3 1029.2 0.0
24/10:30am 12.5 8.8 7.8 73 2.3 ENE 17 20 9 11 1029.6 1029.5 0.0
24/10:00am 11.7 8.2 7.2 74 2.2 E 15 19 8 10 1029.6 1029.5 0.0
24/09:30am 10.9 8.2 7.4 79 1.7 E 11 15 6 8 1029.9 1029.7 0.0
24/09:00am 9.4 6.6 7.0 85 1.1 E 11 15 6 8 1029.3 1029.2 0.0
24/08:30am 7.7 5.1 6.3 91 0.6 ESE 9 11 5 6 1029.4 1029.3 0.0
24/08:00am 7.1 4.0 5.6 90 0.7 E 11 13 6 7 1029.3 1029.2 0.0
24/07:30am 7.8 5.1 5.8 87 0.9 ESE 9 11 5 6 1029.0 1028.9 0.0
24/07:00am 7.5 4.9 6.1 91 0.6 ESE 9 11 5 6 1028.8 1028.7 0.0
24/06:30am 6.6 4.2 5.1 90 0.7 S 7 9 4 5 1028.6 1028.5 0.0
24/06:00am 7.3 4.9 5.4 88 0.8 SSE 7 9 4 5 1028.6 1028.5 0.0
24/05:30am 7.7 5.4 5.7 87 0.9 SE 7 9 4 5 1028.4 1028.3 0.0
24/05:00am 8.0 5.9 5.6 85 1.1 SE 6 7 3 4 1028.0 1027.9 0.0
24/04:30am 8.1 5.0 5.7 85 1.1 SE 11 11 6 6 1027.7 1027.6 0.0
24/04:00am 8.5 5.5 6.0 84 1.1 SE 11 11 6 6 1027.9 1027.8 0.0
24/03:30am 8.3 5.7 5.9 85 1.1 ESE 9 11 5 6 1027.9 1027.8 0.0
24/03:00am 8.0 5.4 6.0 87 0.9 SSE 9 11 5 6 1028.0 1027.9 0.0
24/02:30am 8.1 5.5 5.9 86 1.0 SSE 9 11 5 6 1028.1 1028.0 0.0
24/02:00am 9.3 7.1 6.2 81 1.4 ESE 7 9 4 5 1028.1 1028.0 0.0
24/01:30am 9.0 7.3 6.1 82 1.3 ESE 4 6 2 3 1028.1 1028.0 0.0
24/01:00am 9.2 6.6 6.1 81 1.4 E 9 11 5 6 1027.7 1027.6 0.0
24/12:30am 9.5 7.3 6.2 80 1.5 SE 7 9 4 5 1028.0 1027.9 0.0
24/12:00am 10.1 7.2 6.4 78 1.7 SE 11 13 6 7 1028.2 1028.1 0.0
 
Date/Time
EST
Temp
°C
App
Temp
°C
Dew
Point
Rel
Hum
%
Delta-T
°C
Wind Press
QNH
hPa
Press
MSL
hPa
Rain
since 9 am
mm
Dir
 
Spd
km/h
Gust
km/h
Spd
kts
Gust
kts
23/11:30pm 10.1 7.9 6.4 78 1.7 SSE 7 9 4 5 1028.3 1028.2 0.0
23/11:00pm 10.4 7.9 6.5 77 1.8 S 9 13 5 7 1028.2 1028.1 0.0
23/10:30pm 11.1 7.9 7.0 76 2.0 S 13 15 7 8 1028.3 1028.2 0.0
23/10:00pm 11.4 8.2 6.9 74 2.1 SSE 13 15 7 8 1028.4 1028.3 0.0
23/09:30pm 12.3 8.8 7.0 70 2.6 SSE 15 17 8 9 1028.4 1028.3 0.0
23/09:00pm 12.4 8.9 7.1 70 2.6 SSE 15 17 8 9 1028.4 1028.3 0.0
23/08:30pm 13.0 9.1 7.2 68 2.8 SSE 17 20 9 11 1028.4 1028.3 0.0
23/08:00pm 13.1 9.7 7.5 69 2.7 SSE 15 19 8 10 1028.2 1028.1 0.0
23/07:30pm 13.4 10.3 7.4 67 3.0 SSE 13 17 7 9 1028.1 1028.0 0.0
23/07:00pm 13.9 10.4 7.2 64 3.3 SSE 15 17 8 9 1027.9 1027.8 0.0
23/06:30pm 14.7 11.5 7.0 60 3.8 SSE 13 15 7 8 1027.8 1027.7 0.0
23/06:00pm 15.5 12.3 6.8 56 4.3 SSE 13 15 7 8 1027.5 1027.4 0.0
23/05:30pm 16.5 12.8 6.1 50 5.1 SE 15 20 8 11 1027.4 1027.3 0.0
23/05:00pm 17.4 13.6 5.7 46 5.7 SE 15 20 8 11 1027.2 1027.1 0.0
23/04:30pm 17.8 13.9 5.4 44 6.0 ESE 15 22 8 12 1027.1 1027.0 0.0
23/04:00pm 17.7 13.5 5.9 46 5.8 ESE 17 22 9 12 1027.1 1027.0 0.0
23/03:30pm 17.8 13.6 5.7 45 5.9 SE 17 22 9 12 1027.3 1027.2 0.0
23/03:00pm 18.1 14.5 6.6 47 5.7 ESE 15 24 8 13 1027.4 1027.3 0.0
23/02:30pm 17.7 14.6 7.2 50 5.3 SE 13 20 7 11 1027.4 1027.3 0.0
23/02:00pm 17.5 14.8 7.3 51 5.1 ESE 11 19 6 10 1027.7 1027.6 0.0
23/01:30pm 16.8 14.1 7.4 54 4.7 ESE 11 17 6 9 1028.0 1027.9 0.0
23/01:00pm 16.2 13.5 7.2 55 4.5 ESE 11 15 6 8 1028.5 1028.4 0.0
23/12:30pm 16.0 13.0 7.5 57 4.3 E 13 19 7 10 1028.9 1028.8 0.0
23/12:00pm 15.8 12.9 8.1 60 3.9 ESE 13 19 7 10 1029.3 1029.2 0.0
23/11:30am 14.9 12.5 7.2 60 3.8 E 9 15 5 8 1029.8 1029.6 0.0
23/11:00am 14.3 11.9 7.1 62 3.5 SE 9 13 5 7 1030.2 1030.0 0.0
23/10:30am 13.4 10.2 7.0 65 3.1 SE 13 15 7 8 1030.5 1030.3 0.0
23/10:00am 12.6 9.2 6.0 64 3.1 SE 13 19 7 10 1030.6 1030.4 0.0

Other Formats:

Comma delimited format used in spreadsheet applications
http://www.bom.gov.au/fwo/IDN60801/IDN60801.95699.axf

JavaScript Object Notation format (JSON) in row-major order
http://www.bom.gov.au/fwo/IDN60801/IDN60801.95699.json